Time;durP1;ratioP1;P1;durP2;ratioP2;P2;SDS_P1;SDS_P2;PMS_P1;PMS_P2;Temp;Humidity;BMP_temperature;BMP_pressure;BME280_temperature;BME280_humidity;BME280_pressure;Samples;Min_cycle;Max_cycle;Signal;HPM_P1;HPM_P2
2022/09/03 00:02:15;;;;;;;0.30;0.20;;;;;;;-145.06;100.00;60892.56;4782468;28;20043;-85
2022/09/03 00:05:04;;;;;;;2.25;0.43;;;;;;;-145.06;100.00;60892.56;4796836;28;20031;-85
2022/09/03 00:08:05;;;;;;;0.43;0.28;;;;;;;-145.06;100.00;60892.56;4780385;28;20035;-86
2022/09/03 00:10:50;;;;;;;0.38;0.30;;;;;;;-145.06;100.00;60892.56;4777454;28;20031;-85
2022/09/03 00:13:35;;;;;;;0.30;0.30;;;;;;;-145.06;100.00;60892.56;4791129;28;20042;-85
2022/09/03 00:16:18;;;;;;;0.45;0.30;;;;;;;-145.06;100.00;60892.56;4777786;28;20035;-85
2022/09/03 00:19:02;;;;;;;0.52;0.30;;;;;;;-145.06;100.00;60892.56;4794009;28;20038;-84
2022/09/03 00:21:54;;;;;;;0.30;0.20;;;;;;;-145.06;100.00;60892.56;4780593;28;20465;-84
2022/09/03 00:24:37;;;;;;;0.30;0.20;;;;;;;-145.06;100.00;60892.56;4793588;28;20034;-86
2022/09/03 00:27:24;;;;;;;0.65;0.40;;;;;;;-145.06;100.00;60892.56;4792120;28;20035;-84
2022/09/03 00:30:08;;;;;;;0.40;0.20;;;;;;;-145.06;100.00;60892.56;4794406;28;20034;-86
2022/09/03 00:32:53;;;;;;;0.35;0.30;;;;;;;-145.06;100.00;60892.56;4781884;28;20038;-85
2022/09/03 00:35:40;;;;;;;1.83;0.40;;;;;;;-145.06;100.00;60892.56;4779142;28;20061;-86
2022/09/03 00:38:21;;;;;;;0.47;0.20;;;;;;;-145.06;100.00;60892.56;4777123;28;20031;-85
2022/09/03 00:41:12;;;;;;;0.20;0.20;;;;;;;-145.06;100.00;60892.56;4793776;28;20381;-85
2022/09/03 00:44:25;;;;;;;0.30;0.20;;;;;;;-145.06;100.00;60892.56;4778213;28;20031;-85
2022/09/03 00:47:28;;;;;;;0.30;0.30;;;;;;;-145.06;100.00;60892.56;4774810;28;20030;-86
2022/09/03 00:50:19;;;;;;;0.20;0.20;;;;;;;-145.06;100.00;60892.56;4792830;28;20366;-86
2022/09/03 00:53:17;;;;;;;0.45;0.30;;;;;;;-145.06;100.00;60892.56;4791661;28;20593;-85
2022/09/03 00:56:18;;;;;;;0.40;0.20;;;;;;;-145.06;100.00;60892.56;4796233;28;20038;-86
2022/09/03 00:59:03;;;;;;;0.35;0.28;;;;;;;-145.06;100.00;60892.56;4788030;28;20541;-85
2022/09/03 01:02:04;;;;;;;0.57;0.35;;;;;;;-145.06;100.00;60892.56;4775832;28;20039;-85
2022/09/03 01:04:52;;;;;;;0.22;0.20;;;;;;;-145.06;100.00;60892.56;4792469;28;20532;-85
2022/09/03 01:07:47;;;;;;;0.57;0.30;;;;;;;-145.06;100.00;60892.56;4789232;28;20030;-85
2022/09/03 01:10:43;;;;;;;1.48;0.30;;;;;;;-145.06;100.00;60892.56;4791158;28;20627;-85
2022/09/03 01:13:53;;;;;;;0.30;0.25;;;;;;;-145.06;100.00;60892.56;4776772;28;20035;-85
2022/09/03 01:16:50;;;;;;;0.52;0.30;;;;;;;-145.06;100.00;60892.56;4779080;28;20054;-85
2022/09/03 01:19:57;;;;;;;0.57;0.30;;;;;;;-145.06;100.00;60892.56;4790332;28;20042;-85
2022/09/03 01:23:09;;;;;;;0.28;0.20;;;;;;;-145.06;100.00;60892.56;4788603;28;20038;-86
2022/09/03 01:25:53;;;;;;;0.50;0.10;;;;;;;-145.06;100.00;60892.56;4781368;28;20038;-86
2022/09/03 01:29:10;;;;;;;0.35;0.30;;;;;;;-145.06;100.00;60892.56;4787957;28;20030;-85
2022/09/03 01:31:59;;;;;;;0.40;0.30;;;;;;;-145.06;100.00;60892.56;4783372;28;20031;-86
2022/09/03 01:35:00;;;;;;;0.30;0.20;;;;;;;-145.06;100.00;60892.56;4794449;28;20382;-86
2022/09/03 01:37:57;;;;;;;0.60;0.30;;;;;;;-145.06;100.00;60892.56;4796689;28;20046;-85
2022/09/03 01:42:12;;;;;;;0.30;0.28;;;;;;;-145.06;100.00;60892.56;4786825;28;20470;-84
2022/09/03 01:44:31;;;;;;;0.40;0.28;;;;;;;-145.06;100.00;60892.56;4792861;28;20034;-85
2022/09/03 01:47:38;;;;;;;0.25;0.20;;;;;;;-145.06;100.00;60892.56;4806524;28;20070;-85
2022/09/03 01:50:17;;;;;;;0.25;0.25;;;;;;;-145.06;100.00;60892.56;4792643;28;20386;-85
2022/09/03 01:53:21;;;;;;;0.40;0.30;;;;;;;-145.06;100.00;60892.56;4796755;28;20062;-86
2022/09/03 01:56:25;;;;;;;0.20;0.20;;;;;;;-145.06;100.00;60892.56;4795484;28;20110;-85
2022/09/03 01:59:27;;;;;;;0.15;0.15;;;;;;;-145.06;100.00;60892.56;4796999;28;20500;-85
2022/09/03 02:02:20;;;;;;;0.40;0.28;;;;;;;-145.06;100.00;60892.56;4800083;28;20042;-85
2022/09/03 02:05:10;;;;;;;0.45;0.25;;;;;;;-145.06;100.00;60892.56;4799317;28;21705;-86
2022/09/03 02:08:04;;;;;;;0.40;0.30;;;;;;;-145.06;100.00;60892.56;4798049;28;20077;-85
2022/09/03 02:10:51;;;;;;;0.40;0.20;;;;;;;-145.06;100.00;60892.56;4781397;28;20043;-85
2022/09/03 02:13:35;;;;;;;0.60;0.40;;;;;;;-145.06;100.00;60892.56;4787576;28;20042;-86
2022/09/03 02:16:24;;;;;;;0.30;0.20;;;;;;;-145.06;100.00;60892.56;4781038;28;20030;-85
2022/09/03 02:19:10;;;;;;;0.25;0.20;;;;;;;-145.06;100.00;60892.56;4798118;28;20266;-85
2022/09/03 02:21:53;;;;;;;0.30;0.30;;;;;;;-145.06;100.00;60892.56;4792222;28;20057;-85
2022/09/03 02:24:32;;;;;;;0.80;0.25;;;;;;;-145.06;100.00;60892.56;4793429;28;20039;-85
2022/09/03 02:27:11;;;;;;;0.40;0.30;;;;;;;-145.06;100.00;60892.56;4807282;28;20118;-85
2022/09/03 02:29:51;;;;;;;0.35;0.20;;;;;;;-145.06;100.00;60892.56;4772802;28;20038;-85
2022/09/03 02:32:31;;;;;;;0.40;0.40;;;;;;;-145.06;100.00;60892.56;4783176;28;20035;-85
2022/09/03 02:35:11;;;;;;;0.20;0.20;;;;;;;-145.06;100.00;60892.56;4793439;28;20430;-85
2022/09/03 02:37:50;;;;;;;1.45;0.30;;;;;;;-145.06;100.00;60892.56;4781770;28;20034;-85
2022/09/03 02:40:29;;;;;;;0.57;0.40;;;;;;;-145.06;100.00;60892.56;4790161;28;20118;-85
2022/09/03 02:43:15;;;;;;;0.30;0.23;;;;;;;-145.06;100.00;60892.56;4785374;28;20873;-85
2022/09/03 02:45:59;;;;;;;0.20;0.20;;;;;;;-145.06;100.00;60892.56;4789296;28;20117;-85
2022/09/03 02:48:38;;;;;;;0.38;0.30;;;;;;;-145.06;100.00;60892.56;4777046;28;20481;-85
2022/09/03 02:51:17;;;;;;;0.30;0.20;;;;;;;-145.06;100.00;60892.56;4780955;28;20026;-85
2022/09/03 02:53:56;;;;;;;0.98;0.30;;;;;;;-145.06;100.00;60892.56;4793553;28;20622;-85
2022/09/03 02:56:36;;;;;;;0.30;0.20;;;;;;;-145.06;100.00;60892.56;4794677;28;20509;-85
2022/09/03 02:59:16;;;;;;;0.32;0.30;;;;;;;-145.06;100.00;60892.56;4795450;28;20357;-86
2022/09/03 03:01:55;;;;;;;0.68;0.30;;;;;;;-145.06;100.00;60892.56;4780864;28;20030;-85
2022/09/03 03:04:34;;;;;;;0.40;0.30;;;;;;;-145.06;100.00;60892.56;4790911;28;20030;-85
2022/09/03 03:07:13;;;;;;;0.40;0.20;;;;;;;-145.06;100.00;60892.56;4783148;28;20034;-85
2022/09/03 03:09:52;;;;;;;0.27;0.27;;;;;;;-145.06;100.00;60892.56;4793299;28;20049;-86
2022/09/03 03:12:31;;;;;;;0.85;0.40;;;;;;;-145.06;100.00;60892.56;4780280;28;20270;-86
2022/09/03 03:15:10;;;;;;;0.20;0.20;;;;;;;-145.06;100.00;60892.56;4793161;28;20034;-85
2022/09/03 03:17:49;;;;;;;0.30;0.30;;;;;;;-145.06;100.00;60892.56;4796775;28;20038;-85
2022/09/03 03:20:28;;;;;;;0.52;0.20;;;;;;;-145.06;100.00;60892.56;4792427;28;20031;-85
2022/09/03 03:23:08;;;;;;;0.10;0.10;;;;;;;-145.06;100.00;60892.56;4775516;28;20418;-85
2022/09/03 03:25:47;;;;;;;0.50;0.20;;;;;;;-145.06;100.00;60892.56;4791730;28;20039;-85
2022/09/03 03:28:26;;;;;;;0.27;0.20;;;;;;;-145.06;100.00;60892.56;4793208;28;20070;-85
2022/09/03 03:31:11;;;;;;;0.40;0.20;;;;;;;-145.06;100.00;60892.56;4793431;28;20345;-85
2022/09/03 03:33:55;;;;;;;0.28;0.20;;;;;;;-145.06;100.00;60892.56;4792033;28;20042;-85
2022/09/03 03:36:35;;;;;;;0.30;0.30;;;;;;;-145.06;100.00;60892.56;4794829;28;20066;-85
2022/09/03 03:39:14;;;;;;;0.30;0.30;;;;;;;-145.06;100.00;60892.56;4792928;28;20114;-85
2022/09/03 03:41:53;;;;;;;0.20;0.20;;;;;;;-145.06;100.00;60892.56;4787363;28;20137;-86
2022/09/03 03:44:32;;;;;;;0.28;0.20;;;;;;;-145.06;100.00;60892.56;4819010;28;20094;-85
2022/09/03 03:47:11;;;;;;;0.47;0.28;;;;;;;-145.06;100.00;60892.56;4800279;28;20038;-85
2022/09/03 03:49:50;;;;;;;0.40;0.20;;;;;;;-145.06;100.00;60892.56;4794504;28;20042;-85
2022/09/03 03:52:29;;;;;;;0.40;0.30;;;;;;;-145.06;100.00;60892.56;4797012;28;20042;-85
2022/09/03 03:55:08;;;;;;;0.50;0.28;;;;;;;-145.06;100.00;60892.56;4788209;28;20031;-86
2022/09/03 03:57:47;;;;;;;0.85;0.40;;;;;;;-145.06;100.00;60892.56;4791638;28;20057;-86
2022/09/03 04:00:26;;;;;;;0.50;0.28;;;;;;;-145.06;100.00;60892.56;4790882;28;20027;-84
2022/09/03 04:03:05;;;;;;;0.25;0.20;;;;;;;-145.06;100.00;60892.56;4780688;28;20043;-85
2022/09/03 04:05:58;;;;;;;0.30;0.30;;;;;;;-145.06;100.00;60892.56;4796349;28;20034;-85
2022/09/03 04:08:39;;;;;;;0.65;0.30;;;;;;;-145.06;100.00;60892.56;4776416;28;20039;-86
2022/09/03 04:11:21;;;;;;;0.20;0.13;;;;;;;-145.06;100.00;60892.56;4778608;28;20039;-85
2022/09/03 04:14:01;;;;;;;0.43;0.20;;;;;;;-145.06;100.00;60892.56;4794097;28;20301;-85
2022/09/03 04:16:40;;;;;;;0.20;0.20;;;;;;;-145.06;100.00;60892.56;4793299;28;20038;-85
2022/09/03 04:19:19;;;;;;;0.20;0.20;;;;;;;-145.06;100.00;60892.56;4794193;28;20039;-86
2022/09/03 04:21:59;;;;;;;0.35;0.20;;;;;;;-145.06;100.00;60892.56;4780798;28;20042;-84
2022/09/03 04:24:38;;;;;;;0.35;0.25;;;;;;;-145.06;100.00;60892.56;4780230;28;20042;-85
2022/09/03 04:27:17;;;;;;;0.80;0.30;;;;;;;-145.06;100.00;60892.56;4781493;28;20062;-85
2022/09/03 04:29:56;;;;;;;0.20;0.20;;;;;;;-145.06;100.00;60892.56;4780326;28;20027;-85
2022/09/03 04:32:54;;;;;;;0.20;0.20;;;;;;;-145.06;100.00;60892.56;4798671;28;20030;-85
2022/09/03 04:35:33;;;;;;;0.32;0.22;;;;;;;-145.06;100.00;60892.56;4776313;28;20043;-84
2022/09/03 04:38:12;;;;;;;0.30;0.20;;;;;;;-145.06;100.00;60892.56;4779149;28;20038;-86
2022/09/03 04:40:51;;;;;;;0.23;0.20;;;;;;;-145.06;100.00;60892.56;4785396;28;20485;-84
2022/09/03 04:43:31;;;;;;;0.63;0.30;;;;;;;-145.06;100.00;60892.56;4779032;28;20042;-85
2022/09/03 04:46:11;;;;;;;;;;;;;;;-145.06;100.00;60892.56;4790434;28;20406;-85
2022/09/03 04:48:53;;;;;;;0.20;0.20;;;;;;;-145.06;100.00;60892.56;4795641;28;19937;-86
2022/09/03 04:51:32;;;;;;;0.52;0.28;;;;;;;-145.06;100.00;60892.56;4777893;28;20043;-85
2022/09/03 04:54:11;;;;;;;0.45;0.20;;;;;;;-145.06;100.00;60892.56;4793880;28;20081;-86
2022/09/03 04:56:50;;;;;;;0.45;0.20;;;;;;;-145.06;100.00;60892.56;4791705;28;20073;-86
2022/09/03 04:59:29;;;;;;;0.25;0.20;;;;;;;-145.06;100.00;60892.56;4794371;28;20039;-86
2022/09/03 05:02:08;;;;;;;0.43;0.20;;;;;;;-145.06;100.00;60892.56;4801382;28;20379;-85
2022/09/03 05:04:48;;;;;;;0.88;0.20;;;;;;;-145.06;100.00;60892.56;4793067;28;20777;-84
2022/09/03 05:07:27;;;;;;;0.20;0.20;;;;;;;-145.06;100.00;60892.56;4797160;28;20046;-83
2022/09/03 05:10:11;;;;;;;0.30;0.30;;;;;;;-145.06;100.00;60892.56;4789578;28;20034;-84
2022/09/03 05:13:04;;;;;;;0.25;0.25;;;;;;;-145.06;100.00;60892.56;4779554;28;20035;-84
2022/09/03 05:15:44;;;;;;;0.32;0.20;;;;;;;-145.06;100.00;60892.56;4772762;28;20043;-84
2022/09/03 05:18:23;;;;;;;0.45;0.20;;;;;;;-145.06;100.00;60892.56;4783456;28;20497;-84
2022/09/03 05:21:10;;;;;;;0.30;0.20;;;;;;;-145.06;100.00;60892.56;4793079;28;20054;-83
2022/09/03 05:23:50;;;;;;;0.22;0.20;;;;;;;-145.06;100.00;60892.56;4785159;28;20129;-84
2022/09/03 05:26:32;;;;;;;0.17;0.10;;;;;;;-145.06;100.00;60892.56;4793534;28;20047;-83
2022/09/03 05:29:13;;;;;;;0.32;0.20;;;;;;;-145.06;100.00;60892.56;4795090;28;20066;-83
2022/09/03 05:31:52;;;;;;;0.30;0.20;;;;;;;-145.06;100.00;60892.56;4778757;28;20039;-84
2022/09/03 05:34:31;;;;;;;;;;;;;;;-145.06;100.00;60892.56;4792431;28;20026;-83
2022/09/03 05:37:11;;;;;;;0.30;0.13;;;;;;;-145.06;100.00;60892.56;4795324;28;19918;-83
2022/09/03 05:39:50;;;;;;;;;;;;;;;-145.06;100.00;60892.56;4793602;28;20030;-82
2022/09/03 05:42:31;;;;;;;0.65;0.20;;;;;;;-145.06;100.00;60892.56;4791718;28;20203;-83
2022/09/03 05:45:10;;;;;;;0.47;0.15;;;;;;;-145.06;100.00;60892.56;4799382;28;20591;-83
2022/09/03 05:47:49;;;;;;;0.20;0.20;;;;;;;-145.06;100.00;60892.56;4793252;28;20034;-83
2022/09/03 05:50:28;;;;;;;0.30;0.28;;;;;;;-145.06;100.00;60892.56;4781894;28;21288;-83
2022/09/03 05:53:07;;;;;;;0.28;0.20;;;;;;;-145.06;100.00;60892.56;4791617;28;20038;-83
2022/09/03 05:55:54;;;;;;;0.20;0.20;;;;;;;-145.06;100.00;60892.56;4791650;28;20035;-83
2022/09/03 05:58:35;;;;;;;0.77;0.43;;;;;;;-145.06;100.00;60892.56;4774882;28;20043;-83
2022/09/03 06:01:18;;;;;;;0.40;0.28;;;;;;;-145.06;100.00;60892.56;4790069;28;20031;-83
2022/09/03 06:04:06;;;;;;;0.43;0.20;;;;;;;-145.06;100.00;60892.56;4794036;28;20042;-83
2022/09/03 06:06:46;;;;;;;0.40;0.38;;;;;;;-145.06;100.00;60892.56;4788948;28;20462;-84
2022/09/03 06:09:25;;;;;;;0.28;0.20;;;;;;;-145.06;100.00;60892.56;4776315;28;20039;-83
2022/09/03 06:12:04;;;;;;;0.35;0.32;;;;;;;-145.06;100.00;60892.56;4791962;28;20488;-84
2022/09/03 06:14:43;;;;;;;0.40;0.20;;;;;;;-145.06;100.00;60892.56;4789128;28;20030;-84
2022/09/03 06:17:22;;;;;;;0.57;0.20;;;;;;;-145.06;100.00;60892.56;4781731;28;20289;-83
2022/09/03 06:20:02;;;;;;;0.25;0.20;;;;;;;-145.06;100.00;60892.56;4789285;28;20768;-84
2022/09/03 06:22:42;;;;;;;0.40;0.30;;;;;;;-145.06;100.00;60892.56;4785902;28;20046;-84
2022/09/03 06:25:21;;;;;;;;;;;;;;;-145.06;100.00;60892.56;4787865;28;20032;-84
2022/09/03 06:28:01;;;;;;;0.28;0.20;;;;;;;-145.06;100.00;60892.56;4788037;28;19914;-84
2022/09/03 06:30:40;;;;;;;2.08;0.30;;;;;;;-145.06;100.00;60892.56;4795696;28;20039;-84
2022/09/03 06:33:19;;;;;;;0.30;0.30;;;;;;;-145.06;100.00;60892.56;4792516;28;20035;-84
2022/09/03 06:36:00;;;;;;;1.63;0.30;;;;;;;-145.06;100.00;60892.56;4777608;28;20043;-86
2022/09/03 06:38:39;;;;;;;0.63;0.20;;;;;;;-145.06;100.00;60892.56;4794084;28;20461;-84
2022/09/03 06:41:23;;;;;;;0.45;0.20;;;;;;;-145.06;100.00;60892.56;4771571;28;20035;-84
2022/09/03 06:44:10;;;;;;;0.20;0.20;;;;;;;-145.06;100.00;60892.56;4786094;28;20054;-84
2022/09/03 06:46:51;;;;;;;0.30;0.30;;;;;;;-145.06;100.00;60892.56;4783698;28;20843;-83
2022/09/03 06:49:30;;;;;;;0.40;0.22;;;;;;;-145.06;100.00;60892.56;4786182;28;20035;-85
2022/09/03 06:52:09;;;;;;;0.47;0.30;;;;;;;-145.06;100.00;60892.56;4777479;28;20030;-84
2022/09/03 06:54:48;;;;;;;0.50;0.30;;;;;;;-145.06;100.00;60892.56;4796698;28;20039;-85
2022/09/03 06:57:28;;;;;;;0.30;0.20;;;;;;;-145.06;100.00;60892.56;4794863;28;20110;-84
2022/09/03 07:00:08;;;;;;;0.30;0.30;;;;;;;-145.06;100.00;60892.56;4784993;28;20043;-85
2022/09/03 07:02:47;;;;;;;0.43;0.30;;;;;;;-145.06;100.00;60892.56;4785922;28;20039;-85
2022/09/03 07:05:27;;;;;;;0.32;0.20;;;;;;;-145.06;100.00;60892.56;4778579;28;20481;-85
2022/09/03 07:08:06;;;;;;;0.30;0.20;;;;;;;-145.06;100.00;60892.56;4797156;28;20038;-86
2022/09/03 07:10:46;;;;;;;0.40;0.30;;;;;;;-145.06;100.00;60892.56;4779784;28;20635;-84
2022/09/03 07:13:25;;;;;;;0.82;0.20;;;;;;;-145.06;100.00;60892.56;4778918;28;20072;-84
2022/09/03 07:16:07;;;;;;;0.60;0.40;;;;;;;-145.06;100.00;60892.56;4792067;28;20489;-84
2022/09/03 07:18:46;;;;;;;0.50;0.35;;;;;;;-145.06;100.00;60892.56;4784810;28;20392;-84
2022/09/03 07:21:28;;;;;;;0.40;0.28;;;;;;;-145.06;100.00;60892.56;4773063;28;20018;-85
2022/09/03 07:24:08;;;;;;;0.73;0.20;;;;;;;-145.06;100.00;60892.56;4793465;28;20329;-84
2022/09/03 07:26:47;;;;;;;0.20;0.20;;;;;;;-145.06;100.00;60892.56;4787918;28;20125;-84
2022/09/03 07:29:26;;;;;;;1.40;0.40;;;;;;;-145.06;100.00;60892.56;4772989;28;20027;-84
2022/09/03 07:32:05;;;;;;;0.40;0.30;;;;;;;-145.06;100.00;60892.56;4789152;28;20047;-83
2022/09/03 07:34:44;;;;;;;0.68;0.30;;;;;;;-145.06;100.00;60892.56;4789685;28;20042;-84
2022/09/03 07:37:23;;;;;;;0.70;0.38;;;;;;;-145.06;100.00;60892.56;4775949;28;20306;-84
2022/09/03 07:40:03;;;;;;;0.20;0.20;;;;;;;-145.06;100.00;60892.56;4797003;28;20026;-84
2022/09/03 07:42:42;;;;;;;0.13;0.13;;;;;;;-145.06;100.00;60892.56;4795042;28;20043;-82
2022/09/03 07:45:21;;;;;;;0.97;0.27;;;;;;;-145.06;100.00;60892.56;4790790;28;20071;-83
2022/09/03 07:48:00;;;;;;;0.32;0.20;;;;;;;-145.06;100.00;60892.56;4771561;28;20129;-83
2022/09/03 07:50:39;;;;;;;0.10;0.10;;;;;;;-145.06;100.00;60892.56;4789019;28;20465;-82
2022/09/03 07:53:21;;;;;;;0.90;0.20;;;;;;;-145.06;100.00;60892.56;4795523;28;20346;-82
2022/09/03 07:56:06;;;;;;;0.20;0.17;;;;;;;-145.06;100.00;60892.56;4793616;28;20306;-83
2022/09/03 07:58:46;;;;;;;0.30;0.20;;;;;;;-145.06;100.00;60892.56;4790644;28;20161;-84
2022/09/03 08:01:27;;;;;;;0.13;0.13;;;;;;;-145.06;100.00;60892.56;4792379;28;20027;-81
2022/09/03 08:04:06;;;;;;;0.30;0.30;;;;;;;-145.06;100.00;60892.56;4791617;28;20043;-81
2022/09/03 08:06:47;;;;;;;0.40;0.30;;;;;;;-145.06;100.00;60892.56;4770745;28;20042;-81
2022/09/03 08:09:26;;;;;;;0.43;0.20;;;;;;;-145.06;100.00;60892.56;4788358;28;20042;-81
2022/09/03 08:12:05;;;;;;;0.17;0.17;;;;;;;-145.06;100.00;60892.56;4788536;28;20027;-82
2022/09/03 08:14:44;;;;;;;0.30;0.20;;;;;;;-145.06;100.00;60892.56;4774315;28;20031;-80
2022/09/03 08:17:23;;;;;;;0.20;0.20;;;;;;;-145.06;100.00;60892.56;4788805;28;20266;-82
2022/09/03 08:20:03;;;;;;;0.40;0.22;;;;;;;-145.06;100.00;60892.56;4789785;28;20035;-82
2022/09/03 08:22:42;;;;;;;0.20;0.20;;;;;;;-145.06;100.00;60892.56;4782196;28;20042;-82
2022/09/03 08:25:21;;;;;;;0.30;0.20;;;;;;;-145.06;100.00;60892.56;4772742;28;20374;-82
2022/09/03 08:28:00;;;;;;;0.20;0.20;;;;;;;-145.06;100.00;60892.56;4776506;28;20263;-82
2022/09/03 08:30:39;;;;;;;0.47;0.20;;;;;;;-145.06;100.00;60892.56;4785568;28;20038;-82
2022/09/03 08:33:35;;;;;;;0.47;0.30;;;;;;;-145.06;100.00;60892.56;4785257;28;20119;-82
2022/09/03 08:36:17;;;;;;;0.30;0.20;;;;;;;-145.06;100.00;60892.56;4787418;28;20038;-82
2022/09/03 08:39:02;;;;;;;0.20;0.20;;;;;;;-145.06;100.00;60892.56;4782629;28;20066;-82
2022/09/03 08:41:50;;;;;;;0.13;0.13;;;;;;;-145.06;100.00;60892.56;4772797;28;20035;-82
2022/09/03 08:45:05;;;;;;;0.35;0.22;;;;;;;-145.06;100.00;60892.56;4787435;28;20038;-80
2022/09/03 08:47:55;;;;;;;0.20;0.20;;;;;;;-145.06;100.00;60892.56;4760835;28;20058;-81
2022/09/03 08:50:42;;;;;;;0.80;0.43;;;;;;;-145.06;100.00;60892.56;4786012;28;20083;-82
2022/09/03 08:53:37;;;;;;;0.40;0.30;;;;;;;-145.06;100.00;60892.56;4782735;28;20055;-81
2022/09/03 08:56:28;;;;;;;0.32;0.30;;;;;;;-145.06;100.00;60892.56;4793978;28;20026;-82
2022/09/03 08:59:08;;;;;;;0.60;0.20;;;;;;;-145.06;100.00;60892.56;4791942;28;20524;-82
2022/09/03 09:02:05;;;;;;;0.52;0.40;;;;;;;-145.06;100.00;60892.56;4776973;28;20576;-82
2022/09/03 09:04:57;;;;;;;0.38;0.30;;;;;;;-145.06;100.00;60892.56;4791278;28;20035;-82
2022/09/03 09:07:41;;;;;;;0.43;0.32;;;;;;;-145.06;100.00;60892.56;4788386;28;20377;-82
2022/09/03 09:10:34;;;;;;;0.45;0.30;;;;;;;-145.06;100.00;60892.56;4787534;28;20030;-83
2022/09/03 09:13:52;;;;;;;0.30;0.25;;;;;;;-145.06;100.00;60892.56;4788019;28;20039;-83
2022/09/03 09:16:55;;;;;;;0.40;0.30;;;;;;;-145.06;100.00;60892.56;4778985;28;20047;-83
2022/09/03 09:20:02;;;;;;;0.75;0.40;;;;;;;-145.06;100.00;60892.56;4791528;28;20066;-83
2022/09/03 09:22:45;;;;;;;0.30;0.20;;;;;;;-145.06;100.00;60892.56;4787335;28;20504;-83
2022/09/03 09:25:30;;;;;;;0.55;0.30;;;;;;;-145.06;100.00;60892.56;4790925;28;20532;-83
2022/09/03 09:28:21;;;;;;;0.65;0.20;;;;;;;-145.06;100.00;60892.56;4786677;28;20034;-83
2022/09/03 09:31:03;;;;;;;0.35;0.30;;;;;;;-145.06;100.00;60892.56;4785590;28;20026;-82
2022/09/03 09:33:43;;;;;;;0.40;0.28;;;;;;;-145.06;100.00;60892.56;4774731;28;20454;-86
2022/09/03 09:36:22;;;;;;;0.20;0.20;;;;;;;-145.06;100.00;60892.56;4779889;28;20043;-88
2022/09/03 09:39:08;;;;;;;;;;;;;;;-145.06;100.00;60892.56;4774507;28;20121;-88
2022/09/03 09:41:59;;;;;;;0.30;0.30;;;;;;;-145.06;100.00;60892.56;4795753;28;20079;-88
2022/09/03 09:44:39;;;;;;;0.30;0.30;;;;;;;-145.06;100.00;60892.56;4773677;28;20043;-87
2022/09/03 09:47:32;;;;;;;0.95;0.30;;;;;;;-145.06;100.00;60892.56;4787370;28;20308;-88
2022/09/03 09:50:19;;;;;;;0.30;0.20;;;;;;;-145.06;100.00;60892.56;4787170;28;20019;-87
2022/09/03 09:53:07;;;;;;;0.50;0.43;;;;;;;-145.06;100.00;60892.56;4777320;28;20031;-87
2022/09/03 09:55:51;;;;;;;0.40;0.22;;;;;;;-145.06;100.00;60892.56;4783837;28;20086;-86
2022/09/03 09:58:32;;;;;;;0.45;0.30;;;;;;;-145.06;100.00;60892.56;4769243;28;20378;-88
2022/09/03 10:01:24;;;;;;;0.47;0.30;;;;;;;-145.06;100.00;60892.56;4785100;28;20022;-89
2022/09/03 10:04:20;;;;;;;0.35;0.20;;;;;;;-145.06;100.00;60892.56;4778228;28;20042;-88
2022/09/03 10:07:28;;;;;;;0.52;0.20;;;;;;;-145.06;100.00;60892.56;4781566;28;20035;-90
2022/09/03 10:10:20;;;;;;;0.55;0.25;;;;;;;-145.06;100.00;60892.56;4803838;28;20027;-91
2022/09/03 10:13:18;;;;;;;0.32;0.30;;;;;;;-145.06;100.00;60892.56;4785368;28;20382;-90
2022/09/03 10:16:07;;;;;;;0.35;0.25;;;;;;;-145.06;100.00;60892.56;4785484;28;20034;-89
2022/09/03 10:19:17;;;;;;;0.73;0.20;;;;;;;-145.06;100.00;60892.56;4782955;28;20030;-89
2022/09/03 10:22:11;;;;;;;0.30;0.30;;;;;;;-145.06;100.00;60892.56;4792625;28;20282;-89
2022/09/03 10:25:02;;;;;;;2.50;0.30;;;;;;;-145.06;100.00;60892.56;4787228;28;20039;-88
2022/09/03 10:27:43;;;;;;;0.43;0.20;;;;;;;-145.06;100.00;60892.56;4789353;28;20253;-89
2022/09/03 10:30:22;;;;;;;0.80;0.30;;;;;;;-145.06;100.00;60892.56;4795180;28;20512;-89
2022/09/03 10:33:14;;;;;;;0.20;0.20;;;;;;;-145.06;100.00;60892.56;4788222;28;20035;-89
2022/09/03 10:36:15;;;;;;;0.40;0.30;;;;;;;-145.06;100.00;60892.56;4791751;28;20034;-89
2022/09/03 10:39:08;;;;;;;0.30;0.30;;;;;;;-145.06;100.00;60892.56;4810199;28;20026;-90
2022/09/03 10:50:03;;;;;;;0.40;0.30;;;;;;;-145.06;100.00;60892.56;4745004;29;20036;-92
2022/09/03 10:52:51;;;;;;;0.22;0.20;;;;;;;-145.06;100.00;60892.56;4733850;29;20028;-90
2022/09/03 10:55:36;;;;;;;0.30;0.20;;;;;;;-145.06;100.00;60892.56;4739361;29;20491;-91
2022/09/03 10:58:32;;;;;;;0.17;0.17;;;;;;;-145.06;100.00;60892.56;4763844;29;20382;-90
2022/09/03 11:01:36;;;;;;;0.50;0.30;;;;;;;-145.06;100.00;60892.56;4777330;28;20035;-90
2022/09/03 11:04:34;;;;;;;0.30;0.20;;;;;;;-145.06;100.00;60892.56;4772253;28;20058;-89
2022/09/03 11:07:19;;;;;;;0.20;0.20;;;;;;;-145.06;100.00;60892.56;4776945;28;20031;-90
2022/09/03 11:10:31;;;;;;;0.40;0.30;;;;;;;-145.06;100.00;60892.56;4781199;28;20114;-90
2022/09/03 11:13:17;;;;;;;0.40;0.40;;;;;;;-145.06;100.00;60892.56;4758753;29;20070;-91
2022/09/03 11:16:10;;;;;;;0.40;0.30;;;;;;;-145.06;100.00;60892.56;4761294;29;20039;-89
2022/09/03 11:19:21;;;;;;;0.40;0.30;;;;;;;-145.06;100.00;60892.56;4775625;28;20078;-89
2022/09/03 11:22:01;;;;;;;0.30;0.22;;;;;;;-145.06;100.00;60892.56;4769726;28;20043;-90
2022/09/03 11:24:41;;;;;;;1.23;0.30;;;;;;;-145.06;100.00;60892.56;4778191;28;20035;-91
2022/09/03 11:27:49;;;;;;;;;;;;;;;-145.06;100.00;60892.56;4773722;28;20313;-92
2022/09/03 11:30:59;;;;;;;0.20;0.20;;;;;;;-145.06;100.00;60892.56;4773650;28;19922;-90
2022/09/03 11:33:48;;;;;;;0.20;0.20;;;;;;;-145.06;100.00;60892.56;4766564;28;20371;-90
2022/09/03 11:48:33;;;;;;;0.20;0.17;;;;;;;-145.06;100.00;60892.56;4765967;29;20032;-94
2022/09/03 11:51:40;;;;;;;0.43;0.30;;;;;;;-145.06;100.00;60892.56;4670103;29;20049;-92
2022/09/03 11:54:24;;;;;;;0.40;0.32;;;;;;;-145.06;100.00;60892.56;4722956;29;20040;-90
2022/09/03 11:57:10;;;;;;;0.40;0.30;;;;;;;-145.06;100.00;60892.56;4743938;29;20036;-91
2022/09/03 11:59:49;;;;;;;0.20;0.20;;;;;;;-145.06;100.00;60892.56;4761440;29;20040;-90
2022/09/03 12:02:33;;;;;;;0.32;0.32;;;;;;;-145.06;100.00;60892.56;4777863;28;20035;-92
2022/09/03 12:09:38;;;;;;;0.60;0.40;;;;;;;-145.06;100.00;60892.56;4747179;29;20327;-94
2022/09/03 12:12:59;;;;;;;0.90;0.38;;;;;;;-145.06;100.00;60892.56;4737972;29;20028;-93
2022/09/03 12:16:04;;;;;;;0.75;0.32;;;;;;;-145.06;100.00;60892.56;4753303;29;20044;-89
2022/09/03 12:18:44;;;;;;;0.55;0.30;;;;;;;-145.06;100.00;60892.56;4756072;28;20031;-93
2022/09/03 12:21:24;;;;;;;0.30;0.28;;;;;;;-145.06;100.00;60892.56;4778007;28;20501;-91
2022/09/03 12:24:03;;;;;;;0.63;0.30;;;;;;;-145.06;100.00;60892.56;4767093;29;20039;-90
2022/09/03 12:26:45;;;;;;;0.45;0.30;;;;;;;-145.06;100.00;60892.56;4788228;28;20497;-91
2022/09/03 12:29:27;;;;;;;0.65;0.50;;;;;;;-145.06;100.00;60892.56;4761889;28;20035;-90
2022/09/03 12:32:12;;;;;;;0.88;0.30;;;;;;;-145.06;100.00;60892.56;4767585;29;20359;-92
2022/09/03 12:34:52;;;;;;;0.60;0.40;;;;;;;-145.06;100.00;60892.56;4774082;28;20027;-91
2022/09/03 12:37:42;;;;;;;0.20;0.20;;;;;;;-145.06;100.00;60892.56;4766435;29;20485;-92
2022/09/03 12:40:25;;;;;;;0.30;0.30;;;;;;;-145.06;100.00;60892.56;4758568;28;20028;-92
2022/09/03 12:43:18;;;;;;;0.40;0.20;;;;;;;-145.06;100.00;60892.56;4762386;28;20046;-92
2022/09/03 12:50:03;;;;;;;0.28;0.28;;;;;;;-145.06;100.00;60892.56;4775942;28;20023;-91
2022/09/03 12:52:51;;;;;;;0.22;0.22;;;;;;;-145.06;100.00;60892.56;4760061;28;20039;-88
2022/09/03 12:55:45;;;;;;;0.30;0.30;;;;;;;-145.06;100.00;60892.56;4760323;28;20035;-89
2022/09/03 12:58:59;;;;;;;;;;;;;;;;;;;;;
2022/09/03 13:01:46;;;;;;;0.30;0.30;;;;;;;-145.06;100.00;60892.56;4777666;29;20028;-91
2022/09/03 13:07:36;;;;;;;0.30;0.30;;;;;;;-145.06;100.00;60892.56;4774785;28;20035;-90
2022/09/03 13:10:31;;;;;;;0.40;0.30;;;;;;;-145.06;100.00;60892.56;4772761;28;20076;-90